Hauptseite
METAR-TAF:

METAR-TAF

Flughäfen :

Čáslav, Tschechien

Breite: 49-56-23N, Länge: 15-22-55E, Höhe: 242 m

Beobachtung

Neuester Wetterbericht von vor 27 Minuten, um 04:30 UTC
Wind 2 kt aus unterschiedlichen Richtungen
Temperatur 6°C
Luftfeuchtigkeit 93%
Luftdruck 1024 hPa
Sichtweite 10 km oder mehr
Geschlossene Wolkendecke in der Höhe von 4900 ft

METAR: LKCV 180430Z VRB02KT 9999 OVC049 06/05 Q1024 NOSIG RMK BLU BLU

Zeit: 06:57 (04:57 UTC)

Prognose

Neuester Wetterbericht von vor 5 Stunden und 57 Minuten, um 23:00 UTC
Gültige Prognose vom 18 um 00 UTC bis 19 um 00 UTC
Wind 2 kt aus unterschiedlichen Richtungen
Sichtweite 10 km oder mehr
keine Wolken unter 1500 m und keine Kumulonimbus oder Gewitterwolken
Zeitweise
vom 18 um 10 UTC bis 18 um 16 UTC
Wind 5 kt aus West/Nordwest

TAF: LKCV 172300Z 1800/1900 VRB02KT CAVOK TEMPO 1810/1816 29005KT

Wetterbeobachtungen und Prognosen von mehr als 4000 Flughäfen (METAR und TAF Bericht).

Die verfügbaren Stationen werden durch gelbe und rote Markierungen auf der Karte dargestellt.

Führen Sie die Maus auf sie, um den Namen der Station zu sehen.

Darauf klicken, um die Beobachtung von Wetterbeobachtungen und Prognosen zu sehen.

Um die Karte zu ändern : klicken Sie auf den grünen Tasten mit einem schwarzen Kreuz Zum Vergrößern, auf den grünen Button mit einem Gedankenstrich zu verkleinern, oder auf die grünen Pfeile für benachbarte Karten.


METAR-TAF: